Retreat, Georgia
Current Conditions -  °F | °C
As of 12:58 AM on Sunday 23 Nov 2014 (Local Time) from KLHW Reporting Station
Light Rain Light Rain  
Wind Chill: 15°   Ceiling: 6000
Heat Index: 15°   Visibility: 10mi
Dew Point: 14°   Wind: 7mph
Humidity: 92%   Direction: 60°ENE
Pressure: 30.16"   Gusts: NA
Location:  31.7217°N, 81.4475°W
Report Text: KLHW 230558Z AUTO 06006KT 10SM -RA OVC060 15/14 A3016 RMK AO2 SLP216 P0006 60012 T01480135 10152 20139 57031
Loading
Personal Weather Stations






























Interactive Weather Map New forecast layout! Learn more

10-Day Weather Forecast

Advertisements
Track Severe Weather on mobile